< < Back
Terminal Aerodrome Forecast


Current Version              Previous Versions:   1  2  3  4  5  6  7  8  9  

Terminal Aerodrome Forecast

245
FTUS42 KCHS 261720
TAFSAV
TAF
KSAV 261720Z 2618/2718 15010KT P6SM SCT040 SCT200
     FM270400 VRB02KT P6SM FEW250
     FM271400 10007KT P6SM FEW030=

Latest METAR

512
SAUS80 KWBC 270600
MTRSAV
METAR KSAV 270553Z AUTO 14003KT 10SM CLR 22/16 A3011 RMK AO2 SLP194
T02170161 10256 20200 58016 TSNO


USA.gov is the U.S. government's official web portal to all federal, state and local government web resources and services.